sensor_id;sensor_type;location;lat;lon;timestamp;temperature;humidity
2439;DHT22;14509;47.992;7.848;2023-06-14T00:00:45;21.50;27.30
2439;DHT22;14509;47.992;7.848;2023-06-14T00:02:49;21.40;27.40
2439;DHT22;14509;47.992;7.848;2023-06-14T00:04:51;21.40;27.50
2439;DHT22;14509;47.992;7.848;2023-06-14T00:06:55;21.30;27.60
2439;DHT22;14509;47.992;7.848;2023-06-14T00:08:58;21.50;28.20
2439;DHT22;14509;47.992;7.848;2023-06-14T00:11:00;21.30;28.10
2439;DHT22;14509;47.992;7.848;2023-06-14T00:13:02;21.20;28.20
2439;DHT22;14509;47.992;7.848;2023-06-14T00:15:05;21.10;28.50
2439;DHT22;14509;47.992;7.848;2023-06-14T00:17:07;21.00;28.60
2439;DHT22;14509;47.992;7.848;2023-06-14T00:19:10;21.00;28.60
2439;DHT22;14509;47.992;7.848;2023-06-14T00:21:12;20.90;28.80
2439;DHT22;14509;47.992;7.848;2023-06-14T00:23:16;20.90;29.10
2439;DHT22;14509;47.992;7.848;2023-06-14T00:25:18;20.80;29.00
2439;DHT22;14509;47.992;7.848;2023-06-14T00:27:20;20.70;29.10
2439;DHT22;14509;47.992;7.848;2023-06-14T00:29:22;20.70;29.40
2439;DHT22;14509;47.992;7.848;2023-06-14T00:31:24;20.60;29.40
2439;DHT22;14509;47.992;7.848;2023-06-14T00:33:28;20.60;29.50
2439;DHT22;14509;47.992;7.848;2023-06-14T00:35:31;20.50;29.60
2439;DHT22;14509;47.992;7.848;2023-06-14T00:37:33;20.90;30.00
2439;DHT22;14509;47.992;7.848;2023-06-14T00:39:37;20.40;29.90
2439;DHT22;14509;47.992;7.848;2023-06-14T00:41:39;20.30;30.00
2439;DHT22;14509;47.992;7.848;2023-06-14T00:43:41;20.10;30.60
2439;DHT22;14509;47.992;7.848;2023-06-14T00:45:43;20.10;30.10
2439;DHT22;14509;47.992;7.848;2023-06-14T00:47:45;20.10;30.30
2439;DHT22;14509;47.992;7.848;2023-06-14T00:49:48;20.00;30.30
2439;DHT22;14509;47.992;7.848;2023-06-14T00:51:52;20.50;31.00
2439;DHT22;14509;47.992;7.848;2023-06-14T00:53:53;20.30;31.00
2439;DHT22;14509;47.992;7.848;2023-06-14T00:55:57;19.90;31.00
2439;DHT22;14509;47.992;7.848;2023-06-14T00:57:59;19.90;31.00
2439;DHT22;14509;47.992;7.848;2023-06-14T01:00:01;18.40;30.20
2439;DHT22;14509;47.992;7.848;2023-06-14T01:02:07;19.70;31.10
2439;DHT22;14509;47.992;7.848;2023-06-14T01:04:11;19.70;31.30
2439;DHT22;14509;47.992;7.848;2023-06-14T01:06:19;19.70;31.50
2439;DHT22;14509;47.992;7.848;2023-06-14T01:08:31;19.60;31.60
2439;DHT22;14509;47.992;7.848;2023-06-14T01:10:44;19.60;31.80
2439;DHT22;14509;47.992;7.848;2023-06-14T01:12:57;19.60;31.90
2439;DHT22;14509;47.992;7.848;2023-06-14T01:15:01;19.60;32.00
2439;DHT22;14509;47.992;7.848;2023-06-14T01:17:04;19.50;32.00
2439;DHT22;14509;47.992;7.848;2023-06-14T01:19:09;19.50;32.10
2439;DHT22;14509;47.992;7.848;2023-06-14T01:21:21;19.40;32.20
2439;DHT22;14509;47.992;7.848;2023-06-14T01:23:25;19.40;32.50
2439;DHT22;14509;47.992;7.848;2023-06-14T01:25:33;19.40;32.30
2439;DHT22;14509;47.992;7.848;2023-06-14T01:27:36;19.30;32.40
2439;DHT22;14509;47.992;7.848;2023-06-14T01:29:38;19.30;32.40
2439;DHT22;14509;47.992;7.848;2023-06-14T01:31:49;19.30;32.40
2439;DHT22;14509;47.992;7.848;2023-06-14T01:33:52;19.30;32.30
2439;DHT22;14509;47.992;7.848;2023-06-14T01:35:55;19.20;32.40
2439;DHT22;14509;47.992;7.848;2023-06-14T01:37:58;19.20;32.40
2439;DHT22;14509;47.992;7.848;2023-06-14T01:40:07;19.20;32.30
2439;DHT22;14509;47.992;7.848;2023-06-14T01:42:12;19.20;32.40
2439;DHT22;14509;47.992;7.848;2023-06-14T01:44:16;19.20;32.40
2439;DHT22;14509;47.992;7.848;2023-06-14T01:46:19;19.20;32.40
2439;DHT22;14509;47.992;7.848;2023-06-14T01:48:21;19.40;32.50
2439;DHT22;14509;47.992;7.848;2023-06-14T01:50:23;19.20;32.30
2439;DHT22;14509;47.992;7.848;2023-06-14T01:52:29;19.20;32.50
2439;DHT22;14509;47.992;7.848;2023-06-14T01:54:31;19.10;33.10
2439;DHT22;14509;47.992;7.848;2023-06-14T01:56:34;19.10;32.60
2439;DHT22;14509;47.992;7.848;2023-06-14T01:58:36;20.10;33.40
2439;DHT22;14509;47.992;7.848;2023-06-14T02:00:38;19.10;32.40
2439;DHT22;14509;47.992;7.848;2023-06-14T02:02:41;19.00;32.60
2439;DHT22;14509;47.992;7.848;2023-06-14T02:04:42;19.00;32.70
2439;DHT22;14509;47.992;7.848;2023-06-14T02:06:44;19.20;33.00
2439;DHT22;14509;47.992;7.848;2023-06-14T02:08:46;19.10;32.70
2439;DHT22;14509;47.992;7.848;2023-06-14T02:10:48;19.00;32.50
2439;DHT22;14509;47.992;7.848;2023-06-14T02:12:51;19.10;32.60
2439;DHT22;14509;47.992;7.848;2023-06-14T02:14:53;19.10;32.50
2439;DHT22;14509;47.992;7.848;2023-06-14T02:16:57;19.50;32.90
2439;DHT22;14509;47.992;7.848;2023-06-14T02:18:59;19.10;32.50
2439;DHT22;14509;47.992;7.848;2023-06-14T02:21:01;19.10;32.60
2439;DHT22;14509;47.992;7.848;2023-06-14T02:23:03;19.00;32.60
2439;DHT22;14509;47.992;7.848;2023-06-14T02:25:06;19.50;33.20
2439;DHT22;14509;47.992;7.848;2023-06-14T02:27:09;19.00;33.00
2439;DHT22;14509;47.992;7.848;2023-06-14T02:29:13;19.00;32.90
2439;DHT22;14509;47.992;7.848;2023-06-14T02:31:15;19.10;33.00
2439;DHT22;14509;47.992;7.848;2023-06-14T02:33:17;18.90;33.20
2439;DHT22;14509;47.992;7.848;2023-06-14T02:35:20;18.90;33.40
2439;DHT22;14509;47.992;7.848;2023-06-14T02:37:25;19.30;33.80
2439;DHT22;14509;47.992;7.848;2023-06-14T02:39:27;18.80;33.70
2439;DHT22;14509;47.992;7.848;2023-06-14T02:41:29;18.80;33.70
2439;DHT22;14509;47.992;7.848;2023-06-14T02:43:31;18.70;33.70
2439;DHT22;14509;47.992;7.848;2023-06-14T02:45:34;18.60;33.80
2439;DHT22;14509;47.992;7.848;2023-06-14T02:47:36;19.10;34.30
2439;DHT22;14509;47.992;7.848;2023-06-14T02:49:39;18.60;33.80
2439;DHT22;14509;47.992;7.848;2023-06-14T02:51:41;19.40;34.50
2439;DHT22;14509;47.992;7.848;2023-06-14T02:53:43;18.50;33.60
2439;DHT22;14509;47.992;7.848;2023-06-14T02:55:45;18.50;33.90
2439;DHT22;14509;47.992;7.848;2023-06-14T02:57:47;18.40;33.90
2439;DHT22;14509;47.992;7.848;2023-06-14T02:59:51;18.40;34.00
2439;DHT22;14509;47.992;7.848;2023-06-14T03:01:54;18.90;34.40
2439;DHT22;14509;47.992;7.848;2023-06-14T03:03:57;18.40;34.00
2439;DHT22;14509;47.992;7.848;2023-06-14T03:05:59;18.40;34.10
2439;DHT22;14509;47.992;7.848;2023-06-14T03:08:05;18.30;34.40
2439;DHT22;14509;47.992;7.848;2023-06-14T03:10:08;18.20;34.60
2439;DHT22;14509;47.992;7.848;2023-06-14T03:12:11;18.20;34.70
2439;DHT22;14509;47.992;7.848;2023-06-14T03:14:14;18.30;34.80
2439;DHT22;14509;47.992;7.848;2023-06-14T03:16:18;18.20;34.80
2439;DHT22;14509;47.992;7.848;2023-06-14T03:18:23;18.20;34.60
2439;DHT22;14509;47.992;7.848;2023-06-14T03:20:26;18.20;34.60
2439;DHT22;14509;47.992;7.848;2023-06-14T03:22:33;18.20;34.60
2439;DHT22;14509;47.992;7.848;2023-06-14T03:24:35;18.20;34.60
2439;DHT22;14509;47.992;7.848;2023-06-14T03:26:43;18.10;34.70
2439;DHT22;14509;47.992;7.848;2023-06-14T03:28:45;18.00;35.00
2439;DHT22;14509;47.992;7.848;2023-06-14T03:30:48;18.30;35.10
2439;DHT22;14509;47.992;7.848;2023-06-14T03:32:50;18.00;34.90
2439;DHT22;14509;47.992;7.848;2023-06-14T03:34:55;18.10;35.00
2439;DHT22;14509;47.992;7.848;2023-06-14T03:36:58;18.00;34.60
2439;DHT22;14509;47.992;7.848;2023-06-14T03:39:00;18.10;34.70
2439;DHT22;14509;47.992;7.848;2023-06-14T03:41:02;18.00;34.60
2439;DHT22;14509;47.992;7.848;2023-06-14T03:43:04;17.90;34.80
2439;DHT22;14509;47.992;7.848;2023-06-14T03:45:07;17.80;35.10
2439;DHT22;14509;47.992;7.848;2023-06-14T03:47:09;17.80;35.20
2439;DHT22;14509;47.992;7.848;2023-06-14T03:49:11;17.90;35.10
2439;DHT22;14509;47.992;7.848;2023-06-14T03:51:15;17.90;35.00
2439;DHT22;14509;47.992;7.848;2023-06-14T03:53:17;18.00;35.30
2439;DHT22;14509;47.992;7.848;2023-06-14T03:55:23;18.00;35.00
2439;DHT22;14509;47.992;7.848;2023-06-14T03:57:26;18.00;34.70
2439;DHT22;14509;47.992;7.848;2023-06-14T03:59:30;18.00;34.80
2439;DHT22;14509;47.992;7.848;2023-06-14T04:01:33;18.10;34.90
2439;DHT22;14509;47.992;7.848;2023-06-14T04:03:35;18.10;34.90
2439;DHT22;14509;47.992;7.848;2023-06-14T04:05:38;18.10;35.20
2439;DHT22;14509;47.992;7.848;2023-06-14T04:07:44;20.10;36.60
2439;DHT22;14509;47.992;7.848;2023-06-14T04:09:46;18.10;35.00
2439;DHT22;14509;47.992;7.848;2023-06-14T04:11:48;18.10;35.20
2439;DHT22;14509;47.992;7.848;2023-06-14T04:13:50;18.10;35.10
2439;DHT22;14509;47.992;7.848;2023-06-14T04:15:54;18.10;35.10
2439;DHT22;14509;47.992;7.848;2023-06-14T04:18:02;18.10;35.20
2439;DHT22;14509;47.992;7.848;2023-06-14T04:20:05;18.10;35.30
2439;DHT22;14509;47.992;7.848;2023-06-14T04:22:08;17.90;35.50
2439;DHT22;14509;47.992;7.848;2023-06-14T04:24:12;17.70;35.30
2439;DHT22;14509;47.992;7.848;2023-06-14T04:26:15;18.00;35.60
2439;DHT22;14509;47.992;7.848;2023-06-14T04:28:20;18.00;35.50
2439;DHT22;14509;47.992;7.848;2023-06-14T04:30:29;18.10;35.60
2439;DHT22;14509;47.992;7.848;2023-06-14T04:32:32;18.10;35.40
2439;DHT22;14509;47.992;7.848;2023-06-14T04:34:35;18.20;35.30
2439;DHT22;14509;47.992;7.848;2023-06-14T04:36:38;18.20;35.10
2439;DHT22;14509;47.992;7.848;2023-06-14T04:38:42;18.30;35.00
2439;DHT22;14509;47.992;7.848;2023-06-14T04:40:48;18.30;34.90
2439;DHT22;14509;47.992;7.848;2023-06-14T04:42:52;18.40;34.90
2439;DHT22;14509;47.992;7.848;2023-06-14T04:44:55;18.40;34.90
2439;DHT22;14509;47.992;7.848;2023-06-14T04:46:57;18.40;34.70
2439;DHT22;14509;47.992;7.848;2023-06-14T04:49:00;18.40;34.50
2439;DHT22;14509;47.992;7.848;2023-06-14T04:51:03;18.40;34.70
2439;DHT22;14509;47.992;7.848;2023-06-14T04:53:05;18.50;34.50
2439;DHT22;14509;47.992;7.848;2023-06-14T04:55:09;18.40;34.60
2439;DHT22;14509;47.992;7.848;2023-06-14T04:57:12;18.50;34.50
2439;DHT22;14509;47.992;7.848;2023-06-14T04:59:19;18.60;34.50
2439;DHT22;14509;47.992;7.848;2023-06-14T05:01:22;18.80;34.70
2439;DHT22;14509;47.992;7.848;2023-06-14T05:03:24;18.80;34.70
2439;DHT22;14509;47.992;7.848;2023-06-14T05:05:26;18.90;34.40
2439;DHT22;14509;47.992;7.848;2023-06-14T05:07:28;19.00;34.20
2439;DHT22;14509;47.992;7.848;2023-06-14T05:09:31;19.10;34.10
2439;DHT22;14509;47.992;7.848;2023-06-14T05:11:34;19.10;33.70
2439;DHT22;14509;47.992;7.848;2023-06-14T05:13:38;19.20;33.60
2439;DHT22;14509;47.992;7.848;2023-06-14T05:15:40;19.30;33.50
2439;DHT22;14509;47.992;7.848;2023-06-14T05:17:44;19.40;33.10
2439;DHT22;14509;47.992;7.848;2023-06-14T05:19:51;19.50;33.10
2439;DHT22;14509;47.992;7.848;2023-06-14T05:21:52;19.70;33.00
2439;DHT22;14509;47.992;7.848;2023-06-14T05:23:54;19.80;32.60
2439;DHT22;14509;47.992;7.848;2023-06-14T05:25:56;19.80;32.10
2439;DHT22;14509;47.992;7.848;2023-06-14T05:27:58;19.90;31.90
2439;DHT22;14509;47.992;7.848;2023-06-14T05:30:02;20.10;31.80
2439;DHT22;14509;47.992;7.848;2023-06-14T05:32:04;20.20;32.20
2439;DHT22;14509;47.992;7.848;2023-06-14T05:34:06;20.30;31.30
2439;DHT22;14509;47.992;7.848;2023-06-14T05:36:08;20.50;31.20
2439;DHT22;14509;47.992;7.848;2023-06-14T05:38:10;20.50;31.00
2439;DHT22;14509;47.992;7.848;2023-06-14T05:40:12;20.60;31.00
2439;DHT22;14509;47.992;7.848;2023-06-14T05:42:14;20.70;31.00
2439;DHT22;14509;47.992;7.848;2023-06-14T05:44:16;20.80;30.70
2439;DHT22;14509;47.992;7.848;2023-06-14T05:46:20;21.00;30.70
2439;DHT22;14509;47.992;7.848;2023-06-14T05:48:24;21.10;30.80
2439;DHT22;14509;47.992;7.848;2023-06-14T05:50:26;21.20;30.70
2439;DHT22;14509;47.992;7.848;2023-06-14T05:52:28;21.50;30.90
2439;DHT22;14509;47.992;7.848;2023-06-14T05:54:30;21.20;30.70
2439;DHT22;14509;47.992;7.848;2023-06-14T05:56:32;21.30;30.90
2439;DHT22;14509;47.992;7.848;2023-06-14T05:58:34;21.40;30.90
2439;DHT22;14509;47.992;7.848;2023-06-14T06:00:36;21.60;30.50
2439;DHT22;14509;47.992;7.848;2023-06-14T06:02:39;21.70;30.30
2439;DHT22;14509;47.992;7.848;2023-06-14T06:04:41;21.70;30.10
2439;DHT22;14509;47.992;7.848;2023-06-14T06:06:43;21.90;30.20
2439;DHT22;14509;47.992;7.848;2023-06-14T12:10:07;30.10;22.90
2439;DHT22;14509;47.992;7.848;2023-06-14T12:12:12;30.10;22.90
2439;DHT22;14509;47.992;7.848;2023-06-14T12:14:14;30.10;23.00
2439;DHT22;14509;47.992;7.848;2023-06-14T12:16:17;30.20;23.00
2439;DHT22;14509;47.992;7.848;2023-06-14T12:18:19;30.40;23.20
2439;DHT22;14509;47.992;7.848;2023-06-14T12:20:21;30.50;22.70
2439;DHT22;14509;47.992;7.848;2023-06-14T12:22:24;30.60;22.90
2439;DHT22;14509;47.992;7.848;2023-06-14T12:24:28;30.60;23.00
2439;DHT22;14509;47.992;7.848;2023-06-14T12:26:32;30.70;22.80
2439;DHT22;14509;47.992;7.848;2023-06-14T12:28:34;30.80;22.70
2439;DHT22;14509;47.992;7.848;2023-06-14T12:30:37;30.90;22.80
2439;DHT22;14509;47.992;7.848;2023-06-14T12:32:39;30.90;22.50
2439;DHT22;14509;47.992;7.848;2023-06-14T12:34:41;31.00;22.30
2439;DHT22;14509;47.992;7.848;2023-06-14T12:36:46;30.90;22.50
2439;DHT22;14509;47.992;7.848;2023-06-14T12:38:47;30.80;22.30
2439;DHT22;14509;47.992;7.848;2023-06-14T12:40:51;30.80;22.40
2439;DHT22;14509;47.992;7.848;2023-06-14T12:42:54;30.70;22.40
2439;DHT22;14509;47.992;7.848;2023-06-14T12:44:56;30.80;22.60
2439;DHT22;14509;47.992;7.848;2023-06-14T12:46:58;30.80;22.40
2439;DHT22;14509;47.992;7.848;2023-06-14T12:49:00;30.90;22.40
2439;DHT22;14509;47.992;7.848;2023-06-14T12:51:02;30.90;22.40
2439;DHT22;14509;47.992;7.848;2023-06-14T12:53:04;31.00;22.40
2439;DHT22;14509;47.992;7.848;2023-06-14T12:55:06;31.10;22.20
2439;DHT22;14509;47.992;7.848;2023-06-14T12:57:08;31.30;22.40
2439;DHT22;14509;47.992;7.848;2023-06-14T12:59:12;31.50;21.70
2439;DHT22;14509;47.992;7.848;2023-06-14T13:01:14;31.80;21.90
2439;DHT22;14509;47.992;7.848;2023-06-14T13:03:16;32.10;21.60
2439;DHT22;14509;47.992;7.848;2023-06-14T13:05:17;32.60;21.10
2439;DHT22;14509;47.992;7.848;2023-06-14T13:07:19;33.10;20.80
2439;DHT22;14509;47.992;7.848;2023-06-14T13:09:21;33.20;20.40
2439;DHT22;14509;47.992;7.848;2023-06-14T13:11:23;33.30;20.30
2439;DHT22;14509;47.992;7.848;2023-06-14T13:13:25;33.50;20.40
2439;DHT22;14509;47.992;7.848;2023-06-14T13:15:29;33.70;20.50
2439;DHT22;14509;47.992;7.848;2023-06-14T13:17:30;33.80;20.40
2439;DHT22;14509;47.992;7.848;2023-06-14T13:19:33;34.10;20.30
2439;DHT22;14509;47.992;7.848;2023-06-14T13:21:35;34.30;19.80
2439;DHT22;14509;47.992;7.848;2023-06-14T13:23:37;34.70;19.60
2439;DHT22;14509;47.992;7.848;2023-06-14T13:25:40;34.90;19.30
2439;DHT22;14509;47.992;7.848;2023-06-14T13:27:41;35.20;19.40
2439;DHT22;14509;47.992;7.848;2023-06-14T13:29:43;35.20;19.00
2439;DHT22;14509;47.992;7.848;2023-06-14T13:31:46;35.20;18.90
2439;DHT22;14509;47.992;7.848;2023-06-14T13:33:48;35.10;19.00
2439;DHT22;14509;47.992;7.848;2023-06-14T13:35:50;35.00;19.20
2439;DHT22;14509;47.992;7.848;2023-06-14T13:37:53;35.30;19.10
2439;DHT22;14509;47.992;7.848;2023-06-14T13:39:55;35.60;18.70
2439;DHT22;14509;47.992;7.848;2023-06-14T13:41:57;36.10;18.40
2439;DHT22;14509;47.992;7.848;2023-06-14T13:43:59;36.40;18.20
2439;DHT22;14509;47.992;7.848;2023-06-14T13:46:01;36.50;18.00
2439;DHT22;14509;47.992;7.848;2023-06-14T13:48:05;36.60;17.80
2439;DHT22;14509;47.992;7.848;2023-06-14T13:50:07;36.30;18.10
2439;DHT22;14509;47.992;7.848;2023-06-14T13:52:09;36.40;18.30
2439;DHT22;14509;47.992;7.848;2023-06-14T13:54:12;36.60;18.00
2439;DHT22;14509;47.992;7.848;2023-06-14T13:56:15;36.70;17.80
2439;DHT22;14509;47.992;7.848;2023-06-14T13:58:17;36.60;17.70
2439;DHT22;14509;47.992;7.848;2023-06-14T14:00:20;36.50;17.70
2439;DHT22;14509;47.992;7.848;2023-06-14T14:02:22;36.40;17.90
2439;DHT22;14509;47.992;7.848;2023-06-14T14:04:25;36.60;18.00
2439;DHT22;14509;47.992;7.848;2023-06-14T14:06:27;37.00;17.50
2439;DHT22;14509;47.992;7.848;2023-06-14T14:08:29;37.10;17.50
2439;DHT22;14509;47.992;7.848;2023-06-14T14:10:31;37.00;17.70
2439;DHT22;14509;47.992;7.848;2023-06-14T14:12:33;37.10;17.60
2439;DHT22;14509;47.992;7.848;2023-06-14T14:14:35;37.50;17.30
2439;DHT22;14509;47.992;7.848;2023-06-14T14:16:38;37.80;16.80
2439;DHT22;14509;47.992;7.848;2023-06-14T14:18:40;37.90;16.40
2439;DHT22;14509;47.992;7.848;2023-06-14T14:20:43;37.50;16.70
2439;DHT22;14509;47.992;7.848;2023-06-14T14:22:45;37.30;17.10
2439;DHT22;14509;47.992;7.848;2023-06-14T14:24:47;37.20;16.80
2439;DHT22;14509;47.992;7.848;2023-06-14T14:26:49;37.10;17.70
2439;DHT22;14509;47.992;7.848;2023-06-14T14:28:54;37.00;17.00
2439;DHT22;14509;47.992;7.848;2023-06-14T14:30:56;37.40;17.30
2439;DHT22;14509;47.992;7.848;2023-06-14T14:32:57;37.40;16.80
2439;DHT22;14509;47.992;7.848;2023-06-14T14:34:59;37.30;17.10
2439;DHT22;14509;47.992;7.848;2023-06-14T14:37:03;37.10;16.90
2439;DHT22;14509;47.992;7.848;2023-06-14T14:39:05;37.10;17.20
2439;DHT22;14509;47.992;7.848;2023-06-14T14:41:07;37.20;17.10
2439;DHT22;14509;47.992;7.848;2023-06-14T14:43:10;37.30;17.00
2439;DHT22;14509;47.992;7.848;2023-06-14T14:45:11;37.30;17.10
2439;DHT22;14509;47.992;7.848;2023-06-14T14:47:13;37.60;17.00
2439;DHT22;14509;47.992;7.848;2023-06-14T14:49:15;37.90;17.00
2439;DHT22;14509;47.992;7.848;2023-06-14T14:51:17;38.20;16.70
2439;DHT22;14509;47.992;7.848;2023-06-14T14:53:20;38.20;16.50
2439;DHT22;14509;47.992;7.848;2023-06-14T14:55:22;38.20;17.40
2439;DHT22;14509;47.992;7.848;2023-06-14T14:57:24;38.30;16.80
2439;DHT22;14509;47.992;7.848;2023-06-14T14:59:27;38.40;16.60
2439;DHT22;14509;47.992;7.848;2023-06-14T15:01:29;38.40;16.60
2439;DHT22;14509;47.992;7.848;2023-06-14T15:03:31;38.60;16.60
2439;DHT22;14509;47.992;7.848;2023-06-14T15:05:33;38.90;16.40
2439;DHT22;14509;47.992;7.848;2023-06-14T15:07:35;39.00;16.10
2439;DHT22;14509;47.992;7.848;2023-06-14T15:09:38;39.00;16.20
2439;DHT22;14509;47.992;7.848;2023-06-14T15:11:40;38.80;16.30
2439;DHT22;14509;47.992;7.848;2023-06-14T15:13:44;38.50;16.50
2439;DHT22;14509;47.992;7.848;2023-06-14T15:15:46;38.50;16.60
2439;DHT22;14509;47.992;7.848;2023-06-14T15:17:47;38.50;16.80
2439;DHT22;14509;47.992;7.848;2023-06-14T15:19:50;38.60;16.60
2439;DHT22;14509;47.992;7.848;2023-06-14T15:21:52;38.60;16.70
2439;DHT22;14509;47.992;7.848;2023-06-14T15:23:54;38.70;16.60
2439;DHT22;14509;47.992;7.848;2023-06-14T15:25:58;38.70;17.30
2439;DHT22;14509;47.992;7.848;2023-06-14T15:27:59;38.80;16.70
2439;DHT22;14509;47.992;7.848;2023-06-14T15:30:03;39.20;16.60
2439;DHT22;14509;47.992;7.848;2023-06-14T15:32:06;39.60;16.20
2439;DHT22;14509;47.992;7.848;2023-06-14T15:34:08;40.00;15.90
2439;DHT22;14509;47.992;7.848;2023-06-14T15:36:10;39.90;15.70
2439;DHT22;14509;47.992;7.848;2023-06-14T15:38:12;39.60;15.80
2439;DHT22;14509;47.992;7.848;2023-06-14T15:40:15;39.20;15.90
2439;DHT22;14509;47.992;7.848;2023-06-14T15:42:18;38.90;16.20
2439;DHT22;14509;47.992;7.848;2023-06-14T15:44:20;38.80;16.20
2439;DHT22;14509;47.992;7.848;2023-06-14T15:46:23;38.50;16.20
2439;DHT22;14509;47.992;7.848;2023-06-14T15:48:25;38.00;16.50
2439;DHT22;14509;47.992;7.848;2023-06-14T15:50:27;38.00;16.80
2439;DHT22;14509;47.992;7.848;2023-06-14T15:52:29;38.10;16.80
2439;DHT22;14509;47.992;7.848;2023-06-14T15:54:31;38.20;16.30
2439;DHT22;14509;47.992;7.848;2023-06-14T15:56:33;38.00;16.50
2439;DHT22;14509;47.992;7.848;2023-06-14T15:58:37;37.90;16.70
2439;DHT22;14509;47.992;7.848;2023-06-14T16:00:38;37.90;16.60
2439;DHT22;14509;47.992;7.848;2023-06-14T16:02:40;37.90;16.80
2439;DHT22;14509;47.992;7.848;2023-06-14T16:04:43;38.00;16.80
2439;DHT22;14509;47.992;7.848;2023-06-14T16:06:45;38.10;16.70
2439;DHT22;14509;47.992;7.848;2023-06-14T16:08:47;38.30;16.60
2439;DHT22;14509;47.992;7.848;2023-06-14T16:10:50;38.50;16.40
2439;DHT22;14509;47.992;7.848;2023-06-14T16:12:52;38.60;16.40
2439;DHT22;14509;47.992;7.848;2023-06-14T16:14:55;38.90;16.20
2439;DHT22;14509;47.992;7.848;2023-06-14T16:16:57;39.20;16.10
2439;DHT22;14509;47.992;7.848;2023-06-14T16:18:59;39.40;15.90
2439;DHT22;14509;47.992;7.848;2023-06-14T16:21:01;39.50;15.80
2439;DHT22;14509;47.992;7.848;2023-06-14T16:23:06;39.40;15.90
2439;DHT22;14509;47.992;7.848;2023-06-14T16:25:08;39.40;16.10
2439;DHT22;14509;47.992;7.848;2023-06-14T16:27:10;39.50;15.90
2439;DHT22;14509;47.992;7.848;2023-06-14T16:29:13;39.50;16.40
2439;DHT22;14509;47.992;7.848;2023-06-14T16:31:16;39.40;15.90
2439;DHT22;14509;47.992;7.848;2023-06-14T16:33:19;39.00;15.90
2439;DHT22;14509;47.992;7.848;2023-06-14T16:35:21;38.60;16.30
2439;DHT22;14509;47.992;7.848;2023-06-14T16:37:23;38.30;16.40
2439;DHT22;14509;47.992;7.848;2023-06-14T16:39:25;37.90;16.60
2439;DHT22;14509;47.992;7.848;2023-06-14T16:41:27;37.70;17.00
2439;DHT22;14509;47.992;7.848;2023-06-14T16:43:29;37.70;17.20
2439;DHT22;14509;47.992;7.848;2023-06-14T16:45:31;37.90;17.50
2439;DHT22;14509;47.992;7.848;2023-06-14T16:47:34;38.20;16.90
2439;DHT22;14509;47.992;7.848;2023-06-14T16:49:36;38.30;16.70
2439;DHT22;14509;47.992;7.848;2023-06-14T16:51:38;38.20;16.60
2439;DHT22;14509;47.992;7.848;2023-06-14T16:53:40;38.20;16.70
2439;DHT22;14509;47.992;7.848;2023-06-14T16:55:42;38.00;16.80
2439;DHT22;14509;47.992;7.848;2023-06-14T16:57:44;37.90;17.00
2439;DHT22;14509;47.992;7.848;2023-06-14T16:59:46;38.10;17.00
2439;DHT22;14509;47.992;7.848;2023-06-14T17:01:50;38.30;16.80
2439;DHT22;14509;47.992;7.848;2023-06-14T17:03:54;38.40;16.70
2439;DHT22;14509;47.992;7.848;2023-06-14T17:05:57;38.20;16.60
2439;DHT22;14509;47.992;7.848;2023-06-14T17:08:13;38.00;16.90
2439;DHT22;14509;47.992;7.848;2023-06-14T17:10:15;37.80;17.10
2439;DHT22;14509;47.992;7.848;2023-06-14T17:12:17;37.80;17.20
2439;DHT22;14509;47.992;7.848;2023-06-14T17:14:19;37.60;17.00
2439;DHT22;14509;47.992;7.848;2023-06-14T17:16:21;37.40;17.40
2439;DHT22;14509;47.992;7.848;2023-06-14T17:18:23;37.40;17.70
2439;DHT22;14509;47.992;7.848;2023-06-14T17:20:26;37.50;17.60
2439;DHT22;14509;47.992;7.848;2023-06-14T17:22:28;37.60;17.30
2439;DHT22;14509;47.992;7.848;2023-06-14T17:24:30;37.50;17.40
2439;DHT22;14509;47.992;7.848;2023-06-14T17:26:32;37.40;17.60
2439;DHT22;14509;47.992;7.848;2023-06-14T17:28:34;37.20;17.60
2439;DHT22;14509;47.992;7.848;2023-06-14T17:30:36;36.90;17.80
2439;DHT22;14509;47.992;7.848;2023-06-14T17:32:39;37.00;18.00
2439;DHT22;14509;47.992;7.848;2023-06-14T17:34:42;37.20;17.80
2439;DHT22;14509;47.992;7.848;2023-06-14T17:36:45;37.40;17.70
2439;DHT22;14509;47.992;7.848;2023-06-14T17:38:48;37.60;17.50
2439;DHT22;14509;47.992;7.848;2023-06-14T17:40:50;37.50;17.30
2439;DHT22;14509;47.992;7.848;2023-06-14T17:42:51;37.40;17.50
2439;DHT22;14509;47.992;7.848;2023-06-14T17:44:53;37.00;17.70
2439;DHT22;14509;47.992;7.848;2023-06-14T17:46:56;36.50;18.00
2439;DHT22;14509;47.992;7.848;2023-06-14T17:48:58;36.20;18.30
2439;DHT22;14509;47.992;7.848;2023-06-14T17:51:00;36.20;18.30
2439;DHT22;14509;47.992;7.848;2023-06-14T17:53:04;36.30;18.40
2439;DHT22;14509;47.992;7.848;2023-06-14T17:55:06;36.50;18.20
2439;DHT22;14509;47.992;7.848;2023-06-14T17:57:09;36.60;18.20
2439;DHT22;14509;47.992;7.848;2023-06-14T17:59:15;36.60;18.20
2439;DHT22;14509;47.992;7.848;2023-06-14T18:01:19;36.30;18.30
2439;DHT22;14509;47.992;7.848;2023-06-14T18:03:21;35.90;18.70
2439;DHT22;14509;47.992;7.848;2023-06-14T18:05:24;35.60;18.90
2439;DHT22;14509;47.992;7.848;2023-06-14T18:07:28;35.40;19.10
2439;DHT22;14509;47.992;7.848;2023-06-14T18:09:32;35.40;19.10
2439;DHT22;14509;47.992;7.848;2023-06-14T18:11:37;35.20;19.20
2439;DHT22;14509;47.992;7.848;2023-06-14T18:13:38;35.20;19.40
2439;DHT22;14509;47.992;7.848;2023-06-14T18:15:40;35.30;19.30
2439;DHT22;14509;47.992;7.848;2023-06-14T18:17:42;35.30;19.20
2439;DHT22;14509;47.992;7.848;2023-06-14T18:19:44;35.20;19.30
2439;DHT22;14509;47.992;7.848;2023-06-14T18:21:47;35.10;19.30
2439;DHT22;14509;47.992;7.848;2023-06-14T18:23:50;34.90;19.50
2439;DHT22;14509;47.992;7.848;2023-06-14T18:25:55;34.90;19.50
2439;DHT22;14509;47.992;7.848;2023-06-14T18:27:57;34.90;19.40
2439;DHT22;14509;47.992;7.848;2023-06-14T18:29:59;34.90;19.50
2439;DHT22;14509;47.992;7.848;2023-06-14T18:32:00;34.70;19.50
2439;DHT22;14509;47.992;7.848;2023-06-14T18:34:02;34.80;19.70
2439;DHT22;14509;47.992;7.848;2023-06-14T18:36:07;34.70;19.60
2439;DHT22;14509;47.992;7.848;2023-06-14T18:38:09;34.60;19.80
2439;DHT22;14509;47.992;7.848;2023-06-14T18:40:12;34.50;19.80
2439;DHT22;14509;47.992;7.848;2023-06-14T18:42:16;34.40;20.00
2439;DHT22;14509;47.992;7.848;2023-06-14T18:44:17;34.10;20.00
2439;DHT22;14509;47.992;7.848;2023-06-14T18:46:19;33.90;20.30
2439;DHT22;14509;47.992;7.848;2023-06-14T18:48:21;33.70;20.50
2439;DHT22;14509;47.992;7.848;2023-06-14T18:50:23;33.60;20.70
2439;DHT22;14509;47.992;7.848;2023-06-14T18:52:26;33.10;20.90
2439;DHT22;14509;47.992;7.848;2023-06-14T18:54:27;32.90;21.20
2439;DHT22;14509;47.992;7.848;2023-06-14T18:56:29;32.50;21.40
2439;DHT22;14509;47.992;7.848;2023-06-14T18:58:33;32.20;21.70
2439;DHT22;14509;47.992;7.848;2023-06-14T19:00:35;32.10;22.00
2439;DHT22;14509;47.992;7.848;2023-06-14T19:02:37;31.80;22.30
2439;DHT22;14509;47.992;7.848;2023-06-14T19:04:39;31.50;22.40
2439;DHT22;14509;47.992;7.848;2023-06-14T19:06:41;31.10;22.80
2439;DHT22;14509;47.992;7.848;2023-06-14T19:08:44;30.70;23.30